createdAt,value
2018-02-16T00:00:49.002Z,62.57
2018-02-16T00:03:17.280Z,67.60
2018-02-16T00:05:45.537Z,60.83
2018-02-16T00:08:13.011Z,73.03
2018-02-16T00:10:41.267Z,67.77
2018-02-16T00:13:08.782Z,64.00
2018-02-16T00:15:36.253Z,72.50
2018-02-16T00:18:03.799Z,72.27
2018-02-16T00:20:31.279Z,72.87
2018-02-16T00:22:58.749Z,77.37
2018-02-16T00:25:26.259Z,72.43
2018-02-16T00:27:53.803Z,69.93
2018-02-16T00:30:22.083Z,67.23
2018-02-16T00:32:50.343Z,70.37
2018-02-16T00:35:17.831Z,64.87
2018-02-16T00:37:45.622Z,61.93
2018-02-16T00:40:13.110Z,62.93
2018-02-16T00:42:40.590Z,76.40
2018-02-16T00:45:08.878Z,71.33
2018-02-16T00:47:37.153Z,71.07
2018-02-16T00:50:05.402Z,68.47
2018-02-16T00:52:32.886Z,70.33
2018-02-16T00:55:01.150Z,71.67
2018-02-16T00:57:28.666Z,63.43
2018-02-16T00:59:56.142Z,61.77
2018-02-16T01:02:23.634Z,63.20
2018-02-16T01:04:51.887Z,66.77
2018-02-16T01:07:19.361Z,62.10
2018-02-16T01:09:47.622Z,66.43
2018-02-16T01:12:15.104Z,67.90
2018-02-16T01:14:43.343Z,67.20
2018-02-16T01:17:10.838Z,64.33
2018-02-16T01:19:39.085Z,68.67
2018-02-16T01:22:06.569Z,70.53
2018-02-16T01:24:34.827Z,61.83
2018-02-16T01:27:02.415Z,58.27
2018-02-16T01:29:30.690Z,60.03
2018-02-16T01:31:58.990Z,57.30
2018-02-16T01:34:27.215Z,60.07
2018-02-16T01:36:54.695Z,62.60
2018-02-16T01:39:22.947Z,62.27
2018-02-16T01:41:50.430Z,61.47
2018-02-16T01:44:18.706Z,55.50
2018-02-16T01:46:46.966Z,59.63
2018-02-16T01:49:14.538Z,63.83
2018-02-16T01:51:42.018Z,65.43
2018-02-16T01:54:09.550Z,56.47
2018-02-16T01:56:37.022Z,54.10
2018-02-16T01:59:04.504Z,61.20
2018-02-16T02:01:31.991Z,60.20
2018-02-16T02:03:59.470Z,53.70
2018-02-16T02:06:26.946Z,54.60
2018-02-16T02:08:55.203Z,58.20
2018-02-16T02:11:22.685Z,59.33
2018-02-16T02:13:51.048Z,63.30
2018-02-16T02:16:18.613Z,58.13
2018-02-16T02:18:46.166Z,53.60
2018-02-16T02:21:13.635Z,55.90
2018-02-16T02:23:41.910Z,55.40
2018-02-16T02:26:09.415Z,57.93
2018-02-16T02:28:36.898Z,57.07
2018-02-16T02:31:04.386Z,59.57
2018-02-16T02:33:32.639Z,52.47
2018-02-16T02:36:00.221Z,54.90
2018-02-16T02:38:28.501Z,52.10
2018-02-16T02:40:56.751Z,54.57
2018-02-16T02:43:24.229Z,46.07
2018-02-16T02:45:52.521Z,51.73
2018-02-16T02:48:20.079Z,46.07
2018-02-16T02:50:48.324Z,47.30
2018-02-16T02:53:15.922Z,45.13
2018-02-16T02:55:44.171Z,44.87
2018-02-16T02:58:11.656Z,51.03
2018-02-16T03:00:39.906Z,43.53
2018-02-16T03:03:07.390Z,45.30
2018-02-16T03:05:36.674Z,47.70
2018-02-16T03:08:04.218Z,46.40
2018-02-16T03:10:31.694Z,45.50
2018-02-16T03:25:58.303Z,45.93
2018-02-16T03:28:25.788Z,45.37
2018-02-16T03:30:54.058Z,41.30
2018-02-16T03:33:22.313Z,44.73
2018-02-16T03:35:49.797Z,49.83
2018-02-16T03:38:18.041Z,44.97
2018-02-16T03:40:45.631Z,47.50
2018-02-16T03:43:13.869Z,47.40
2018-02-16T03:45:41.369Z,44.83
2018-02-16T03:48:09.643Z,50.60
2018-02-16T03:50:37.911Z,46.50
2018-02-16T03:53:05.394Z,48.93
2018-02-16T03:55:33.663Z,46.63
2018-02-16T03:58:01.934Z,49.20
2018-02-16T04:00:30.174Z,51.07
2018-02-16T04:02:57.662Z,48.47
2018-02-16T04:05:25.916Z,54.50
2018-02-16T04:07:53.398Z,51.63
2018-02-16T04:10:21.649Z,54.30
2018-02-16T04:12:49.129Z,51.23
2018-02-16T04:15:17.376Z,55.00
2018-02-16T04:17:44.861Z,47.73
2018-02-16T04:20:12.338Z,54.70
2018-02-16T04:22:40.578Z,55.40
2018-02-16T04:25:08.070Z,57.00
2018-02-16T04:27:36.333Z,52.63
2018-02-16T04:30:04.577Z,59.17
2018-02-16T04:32:32.071Z,62.50
2018-02-16T04:35:00.311Z,59.17
2018-02-16T04:37:27.807Z,57.17
2018-02-16T04:39:56.071Z,58.47
2018-02-16T04:42:23.631Z,47.53
2018-02-16T04:44:51.105Z,56.70
2018-02-16T04:47:19.378Z,58.50
2018-02-16T04:49:47.622Z,57.40
2018-02-16T04:52:15.103Z,60.23
2018-02-16T04:54:42.588Z,58.20
2018-02-16T04:57:10.068Z,61.60
2018-02-16T04:59:37.583Z,64.27
2018-02-16T05:02:05.834Z,59.60
2018-02-16T05:04:33.429Z,67.03
2018-02-16T05:07:01.698Z,69.17
2018-02-16T05:09:29.954Z,65.87
2018-02-16T05:11:58.250Z,60.00
2018-02-16T05:14:26.530Z,52.57
2018-02-16T05:16:54.906Z,52.50
2018-02-16T05:19:23.186Z,64.27
2018-02-16T05:21:51.438Z,55.30
2018-02-16T05:24:18.929Z,60.00
2018-02-16T05:26:46.418Z,52.10
2018-02-16T05:29:13.895Z,62.60
2018-02-16T05:31:41.399Z,64.47
2018-02-16T05:34:09.651Z,70.63
2018-02-16T05:36:37.951Z,63.90
2018-02-16T05:39:06.223Z,65.80
2018-02-16T05:41:34.471Z,62.90
2018-02-16T05:44:01.965Z,60.77
2018-02-16T05:46:30.218Z,60.30
2018-02-16T05:48:57.711Z,73.67
2018-02-16T05:51:25.260Z,69.03
2018-02-16T05:53:53.522Z,72.17
2018-02-16T05:56:20.998Z,69.47
2018-02-16T05:58:49.278Z,67.30
2018-02-16T06:01:17.532Z,71.00
2018-02-16T06:03:45.106Z,70.10
2018-02-16T06:06:12.602Z,76.20
2018-02-16T06:08:40.086Z,67.70
2018-02-16T06:11:07.600Z,66.10
2018-02-16T06:13:35.086Z,66.73
2018-02-16T06:16:02.653Z,65.77
2018-02-16T06:18:30.094Z,61.87
2018-02-16T06:20:57.573Z,70.90
2018-02-16T06:23:25.064Z,60.17
2018-02-16T06:25:53.311Z,64.00
2018-02-16T06:28:20.781Z,69.67
2018-02-16T06:30:49.043Z,60.47
2018-02-16T06:33:16.523Z,63.13
2018-02-16T06:35:44.399Z,58.93
2018-02-16T06:38:12.679Z,71.23
2018-02-16T06:40:40.924Z,63.13
2018-02-16T06:43:08.401Z,62.10
2018-02-16T06:45:35.971Z,63.20
2018-02-16T06:48:04.226Z,62.00
2018-02-16T06:50:31.724Z,68.33
2018-02-16T06:52:59.299Z,65.73
2018-02-16T06:55:26.787Z,69.00
2018-02-16T06:57:54.266Z,59.97
2018-02-16T07:00:21.863Z,56.37
2018-02-16T07:02:49.351Z,65.50
2018-02-16T07:05:16.858Z,56.70
2018-02-16T07:07:44.666Z,63.53
2018-02-16T07:10:12.138Z,60.80
2018-02-16T07:12:39.618Z,64.77
2018-02-16T07:15:07.212Z,51.73
2018-02-16T07:17:35.461Z,52.20
2018-02-16T07:20:02.930Z,52.27
2018-02-16T07:22:30.501Z,46.13
2018-02-16T07:24:58.744Z,43.90
2018-02-16T07:27:26.216Z,46.77
2018-02-16T07:29:53.787Z,43.07
2018-02-16T07:32:21.358Z,41.70
2018-02-16T07:34:49.603Z,39.93
2018-02-16T07:37:17.093Z,44.77
2018-02-16T07:39:45.329Z,42.33
2018-02-16T07:42:12.827Z,41.10
2018-02-16T07:44:41.079Z,40.40
2018-02-16T07:47:08.558Z,42.20
2018-02-16T07:49:36.802Z,43.57
2018-02-16T07:52:04.294Z,40.67
2018-02-16T07:54:32.535Z,46.20
2018-02-16T07:57:00.024Z,45.23
2018-02-16T07:59:28.279Z,46.23
2018-02-16T08:01:55.766Z,46.23
2018-02-16T08:04:24.011Z,37.77
2018-02-16T08:06:51.599Z,39.27
2018-02-16T08:09:19.866Z,39.60
2018-02-16T08:11:47.408Z,35.97
2018-02-16T08:14:14.873Z,35.33
2018-02-16T08:16:42.346Z,35.87
2018-02-16T08:19:10.594Z,36.40
2018-02-16T08:21:38.090Z,32.20
2018-02-16T08:24:06.365Z,32.57
2018-02-16T08:26:34.635Z,36.83
2018-02-16T08:29:02.894Z,30.80
2018-02-16T08:31:30.506Z,35.87
2018-02-16T08:33:57.983Z,31.60
2018-02-16T08:36:25.480Z,29.07
2018-02-16T08:38:53.739Z,35.07
2018-02-16T08:41:21.222Z,37.80
2018-02-16T08:43:49.479Z,34.23
2018-02-16T08:46:16.969Z,36.50
2018-02-16T08:48:45.222Z,54.37
2018-02-16T08:51:14.222Z,40.57
2018-02-16T08:53:41.696Z,43.90
2018-02-16T08:56:09.981Z,66.17
2018-02-16T08:58:38.234Z,131.73
2018-02-16T09:01:06.407Z,92.03
2018-02-16T09:03:34.651Z,57.13
2018-02-16T09:06:02.138Z,53.57
2018-02-16T09:08:29.710Z,49.87
2018-02-16T09:10:57.953Z,36.73
2018-02-16T09:13:25.450Z,35.10
2018-02-16T09:15:53.696Z,33.33
2018-02-16T09:18:21.290Z,34.43
2018-02-16T09:20:49.538Z,39.60
2018-02-16T09:23:18.550Z,37.07
2018-02-16T09:25:46.798Z,37.40
2018-02-16T09:28:14.304Z,37.87
2018-02-16T09:30:42.542Z,42.77
2018-02-16T09:33:10.114Z,38.47
2018-02-16T09:35:39.645Z,44.80
2018-02-16T09:38:07.126Z,37.90
2018-02-16T09:40:34.610Z,41.80
2018-02-16T09:43:02.103Z,49.63
2018-02-16T09:45:30.481Z,52.77
2018-02-16T09:47:58.767Z,50.73
2018-02-16T09:50:27.143Z,47.47
2018-02-16T09:52:54.697Z,49.13
2018-02-16T09:55:22.973Z,50.73
2018-02-16T09:57:51.231Z,49.80
2018-02-16T10:00:19.055Z,54.50
2018-02-16T10:02:46.525Z,50.70
2018-02-16T10:05:14.017Z,46.27
2018-02-16T10:07:41.494Z,51.13
2018-02-16T10:10:09.746Z,59.87
2018-02-16T10:12:37.230Z,60.57
2018-02-16T10:15:05.474Z,56.33
2018-02-16T10:17:32.962Z,56.80
2018-02-16T10:20:01.254Z,55.43
2018-02-16T10:22:28.818Z,56.07
2018-02-16T10:24:56.298Z,57.80
2018-02-16T10:27:23.814Z,61.87
2018-02-16T10:29:52.072Z,56.13
2018-02-16T10:32:19.749Z,57.47
2018-02-16T10:34:47.998Z,52.40
2018-02-16T10:37:15.485Z,54.73
2018-02-16T10:39:43.762Z,57.03
2018-02-16T10:42:12.022Z,53.40
2018-02-16T10:44:40.316Z,61.03
2018-02-16T10:47:08.561Z,52.10
2018-02-16T10:49:36.059Z,50.63
2018-02-16T10:52:04.951Z,58.37
2018-02-16T10:54:32.451Z,52.57
2018-02-16T10:56:59.983Z,51.23
2018-02-16T10:59:27.466Z,50.87
2018-02-16T11:15:15.331Z,56.57
2018-02-16T11:17:43.584Z,58.80
2018-02-16T11:20:11.067Z,59.33
2018-02-16T11:22:38.557Z,53.27
2018-02-16T11:25:06.032Z,52.70
2018-02-16T11:27:33.527Z,51.50
2018-02-16T11:30:01.021Z,61.70
2018-02-16T11:32:29.266Z,52.17
2018-02-16T11:34:56.742Z,56.13
2018-02-16T11:37:24.990Z,50.60
2018-02-16T11:39:52.476Z,56.40
2018-02-16T11:42:20.729Z,51.87
2018-02-16T11:44:48.223Z,47.90
2018-02-16T11:47:15.771Z,57.10
2018-02-16T11:49:44.015Z,53.93
2018-02-16T11:52:11.509Z,56.03
2018-02-16T11:54:39.754Z,60.83
2018-02-16T11:57:07.237Z,57.00
2018-02-16T11:59:35.503Z,60.10
2018-02-16T12:02:04.491Z,60.37
2018-02-16T12:04:31.965Z,66.73
2018-02-16T12:07:00.236Z,61.23
2018-02-16T12:09:27.848Z,64.23
2018-02-16T12:11:55.330Z,66.93
2018-02-16T12:14:22.823Z,55.63
2018-02-16T12:16:51.073Z,58.43
2018-02-16T12:19:18.548Z,53.87
2018-02-16T12:21:46.044Z,61.00
2018-02-16T12:24:13.526Z,62.63
2018-02-16T12:26:41.010Z,52.07
2018-02-16T12:29:08.518Z,55.53
2018-02-16T12:31:35.994Z,63.57
2018-02-16T12:34:03.472Z,64.50
2018-02-16T12:36:30.965Z,62.63
2018-02-16T12:38:59.225Z,58.60
2018-02-16T12:41:27.154Z,57.40
2018-02-16T12:43:54.683Z,56.10
2018-02-16T12:46:22.933Z,53.43
2018-02-16T12:48:50.414Z,53.83
2018-02-16T12:51:18.716Z,50.90
2018-02-16T12:53:46.935Z,55.37
2018-02-16T12:56:14.422Z,50.87
2018-02-16T12:58:42.682Z,46.50
2018-02-16T13:01:10.189Z,48.57
2018-02-16T13:03:37.683Z,42.43
2018-02-16T13:06:05.171Z,53.23
2018-02-16T13:08:33.451Z,47.47
2018-02-16T13:11:01.709Z,46.60
2018-02-16T13:13:29.213Z,43.73
2018-02-16T13:15:56.690Z,50.20
2018-02-16T13:18:24.170Z,46.93
2018-02-16T13:20:51.682Z,42.40
2018-02-16T13:23:19.166Z,43.70
2018-02-16T13:25:46.686Z,41.13
2018-02-16T13:28:14.228Z,37.90
2018-02-16T13:30:42.474Z,38.37
2018-02-16T13:33:09.968Z,39.40
2018-02-16T13:35:38.233Z,38.57
2018-02-16T13:38:06.523Z,39.70
2018-02-16T13:40:34.074Z,34.30
2018-02-16T13:43:02.332Z,40.03
2018-02-16T13:45:29.810Z,36.50
2018-02-16T13:47:58.121Z,34.23
2018-02-16T13:50:25.619Z,31.90
2018-02-16T13:52:54.161Z,36.23
2018-02-16T13:55:21.713Z,34.10
2018-02-16T13:57:49.547Z,37.00
2018-02-16T14:00:17.919Z,37.43
2018-02-16T14:02:46.248Z,33.00
2018-02-16T14:05:13.847Z,33.00
2018-02-16T14:07:41.355Z,34.77
2018-02-16T14:10:08.873Z,31.23
2018-02-16T14:12:36.607Z,30.30
2018-02-16T14:15:04.165Z,30.47
2018-02-16T14:17:31.783Z,29.37
2018-02-16T14:20:00.194Z,28.47
2018-02-16T14:22:27.822Z,28.80
2018-02-16T14:24:55.402Z,30.97
2018-02-16T14:27:22.968Z,26.57
2018-02-16T14:29:50.568Z,27.83
2018-02-16T14:32:19.198Z,31.33
2018-02-16T14:34:47.116Z,26.70
2018-02-16T14:37:14.951Z,28.07
2018-02-16T14:39:43.197Z,59.70
2018-02-16T14:42:10.876Z,35.10
2018-02-16T14:44:38.395Z,58.67
2018-02-16T14:47:06.018Z,36.63
2018-02-16T14:49:33.817Z,33.30
2018-02-16T14:52:02.085Z,27.30
2018-02-16T14:54:29.571Z,24.20
2018-02-16T14:56:57.067Z,23.80
2018-02-16T14:59:24.557Z,27.73
2018-02-16T15:01:52.165Z,25.07
2018-02-16T15:04:20.427Z,16.30
2018-02-16T15:06:48.761Z,19.80
2018-02-16T15:09:16.307Z,22.00
2018-02-16T15:11:43.833Z,17.43
2018-02-16T15:14:12.084Z,19.93
2018-02-16T15:16:39.675Z,22.20
2018-02-16T15:19:07.938Z,22.97
2018-02-16T15:21:36.250Z,19.40
2018-02-16T15:24:03.726Z,19.00
2018-02-16T15:26:31.219Z,19.70
2018-02-16T15:28:58.694Z,20.33
2018-02-16T15:31:26.962Z,18.10
2018-02-16T15:33:54.460Z,18.57
2018-02-16T15:36:21.962Z,19.40
2018-02-16T15:38:49.444Z,19.30
2018-02-16T15:41:17.696Z,18.57
2018-02-16T15:43:45.178Z,14.13
2018-02-16T15:46:13.429Z,18.90
2018-02-16T15:48:41.160Z,18.83
2018-02-16T15:51:08.641Z,15.40
2018-02-16T15:53:36.126Z,18.47
2018-02-16T15:56:03.615Z,15.17
2018-02-16T15:58:31.205Z,53.57
2018-02-16T16:00:58.721Z,21.07
2018-02-16T16:03:26.987Z,22.53
2018-02-16T16:05:55.263Z,20.07
2018-02-16T16:08:23.515Z,21.93
2018-02-16T16:10:51.098Z,21.97
2018-02-16T16:13:18.675Z,20.37
2018-02-16T16:15:46.915Z,22.13
2018-02-16T16:18:14.411Z,26.50
2018-02-16T16:20:41.885Z,24.47
2018-02-16T16:23:09.376Z,31.43
2018-02-16T16:25:36.983Z,31.70
2018-02-16T16:28:05.254Z,36.27
2018-02-16T16:30:33.571Z,35.53
2018-02-16T16:33:01.063Z,31.10
2018-02-16T16:35:28.606Z,40.97
2018-02-16T16:37:56.086Z,33.43
2018-02-16T16:40:23.574Z,36.17
2018-02-16T16:42:51.814Z,33.00
2018-02-16T16:45:19.330Z,35.10
2018-02-16T16:47:46.860Z,46.43
2018-02-16T16:50:15.109Z,37.40
2018-02-16T16:52:42.694Z,46.70
2018-02-16T16:55:10.949Z,36.33
2018-02-16T16:57:38.425Z,43.07
2018-02-16T17:00:06.678Z,46.57
2018-02-16T17:02:34.209Z,47.97
2018-02-16T17:05:01.691Z,47.10
2018-02-16T17:07:29.187Z,46.50
2018-02-16T17:09:57.450Z,46.87
2018-02-16T17:12:25.755Z,50.03
2018-02-16T17:14:53.235Z,56.30
2018-02-16T17:17:20.731Z,51.10
2018-02-16T17:19:49.734Z,57.70
2018-02-16T17:22:17.347Z,59.03
2018-02-16T17:24:44.862Z,67.27
2018-02-16T17:27:13.138Z,76.23
2018-02-16T17:29:42.021Z,289.07
2018-02-16T17:32:10.470Z,111.17
2018-02-16T17:34:38.108Z,92.13
2018-02-16T17:37:06.344Z,93.50
2018-02-16T17:39:34.044Z,47.07
2018-02-16T17:42:01.550Z,54.87
2018-02-16T17:44:29.039Z,41.30
2018-02-16T17:46:57.296Z,56.93
2018-02-16T17:49:24.870Z,54.60
2018-02-16T17:51:53.116Z,64.47
2018-02-16T17:54:21.377Z,71.87
2018-02-16T17:56:48.875Z,68.43
2018-02-16T17:59:17.125Z,68.90
2018-02-16T18:01:44.639Z,73.83
2018-02-16T18:04:12.175Z,62.23
2018-02-16T18:06:40.451Z,51.93
2018-02-16T18:09:08.723Z,58.90
2018-02-16T18:11:36.995Z,58.13
2018-02-16T18:14:05.267Z,56.63
2018-02-16T18:16:32.838Z,56.13
2018-02-16T18:19:01.115Z,51.60
2018-02-16T18:21:29.368Z,64.60
2018-02-16T18:23:57.075Z,62.23
2018-02-16T18:26:24.554Z,68.17
2018-02-16T18:28:52.050Z,64.47
2018-02-16T18:31:19.545Z,66.07
2018-02-16T18:33:47.042Z,77.23
2018-02-16T18:36:14.546Z,71.33
2018-02-16T18:38:42.820Z,71.60
2018-02-16T18:41:11.566Z,70.47
2018-02-16T18:43:39.174Z,62.77
2018-02-16T18:46:07.437Z,75.70
2018-02-16T18:48:34.924Z,83.10
2018-02-16T18:51:02.402Z,89.20
2018-02-16T18:53:29.899Z,92.17
2018-02-16T18:55:59.088Z,153.60
2018-02-16T18:58:26.684Z,94.93
2018-02-16T19:00:54.942Z,90.63
2018-02-16T19:03:23.245Z,93.30
2018-02-16T19:05:50.799Z,90.53
2018-02-16T19:08:19.173Z,99.83
2018-02-16T19:10:47.435Z,110.30
2018-02-16T19:13:14.937Z,178.77
2018-02-16T19:15:42.475Z,123.37
2018-02-16T19:18:10.743Z,194.20
2018-02-16T19:20:38.997Z,163.17
2018-02-16T19:23:06.497Z,252.53
2018-02-16T19:25:35.495Z,90.77
2018-02-16T19:28:03.037Z,342.93
2018-02-16T19:30:31.330Z,237.57
2018-02-16T19:32:58.862Z,133.83
2018-02-16T19:35:27.146Z,254.73
2018-02-16T19:37:55.414Z,164.13
2018-02-16T19:40:23.702Z,290.63
2018-02-16T19:42:51.954Z,149.07
2018-02-16T19:45:19.464Z,222.67
2018-02-16T19:47:46.958Z,90.83
2018-02-16T19:50:14.445Z,189.53
2018-02-16T19:52:42.776Z,67.13
2018-02-16T19:55:10.278Z,108.90
2018-02-16T19:57:39.297Z,142.30
2018-02-16T20:00:06.796Z,127.53
2018-02-16T20:02:34.301Z,287.77
2018-02-16T20:05:02.574Z,174.23
2018-02-16T20:07:30.855Z,146.97
2018-02-16T20:09:59.103Z,172.27
2018-02-16T20:12:26.593Z,157.63
2018-02-16T20:14:54.867Z,104.83
2018-02-16T20:17:23.143Z,195.17
2018-02-16T20:19:51.389Z,307.13
2018-02-16T20:22:18.971Z,222.97
2018-02-16T20:24:47.233Z,241.50
2018-02-16T20:27:15.507Z,170.97
2018-02-16T20:29:43.765Z,210.83
2018-02-16T20:32:11.250Z,123.40
2018-02-16T20:34:39.528Z,184.57
2018-02-16T20:37:07.798Z,141.60
2018-02-16T20:39:35.288Z,164.20
2018-02-16T20:42:02.770Z,207.67
2018-02-16T20:44:30.286Z,187.43
2018-02-16T20:46:58.562Z,168.40
2018-02-16T20:49:26.822Z,147.43
2018-02-16T20:51:55.114Z,154.63
2018-02-16T20:54:22.608Z,116.57
2018-02-16T20:56:51.078Z,174.50
2018-02-16T20:59:19.331Z,122.30
2018-02-16T21:01:47.585Z,180.80
2018-02-16T21:04:15.074Z,160.40
2018-02-16T21:06:43.333Z,196.43
2018-02-16T21:09:10.823Z,112.83
2018-02-16T21:11:38.325Z,127.13
2018-02-16T21:14:05.820Z,77.17
2018-02-16T21:16:34.075Z,111.77
2018-02-16T21:19:02.435Z,192.40
2018-02-16T21:21:29.943Z,175.57
2018-02-16T21:23:58.198Z,198.60
2018-02-16T21:26:25.688Z,246.27
2018-02-16T21:28:53.186Z,254.50
2018-02-16T21:31:20.683Z,224.90
2018-02-16T21:33:48.947Z,191.07
2018-02-16T21:36:16.451Z,333.93
2018-02-16T21:38:43.948Z,109.03
2018-02-16T21:41:11.443Z,210.83
2018-02-16T21:43:39.752Z,211.40
2018-02-16T21:46:07.240Z,158.70
2018-02-16T21:48:34.752Z,192.67
2018-02-16T21:51:02.397Z,147.90
2018-02-16T21:53:30.654Z,207.97
2018-02-16T21:55:58.150Z,194.73
2018-02-16T21:58:25.919Z,154.90
2018-02-16T22:00:53.459Z,213.00
2018-02-16T22:03:21.726Z,147.83
2018-02-16T22:05:49.993Z,152.40
2018-02-16T22:08:18.248Z,164.23
2018-02-16T22:10:45.729Z,206.57
2018-02-16T22:13:13.229Z,187.50
2018-02-16T22:15:40.705Z,145.23
2018-02-16T22:18:08.235Z,210.73
2018-02-16T22:20:35.721Z,138.70
2018-02-16T22:23:03.199Z,135.57
2018-02-16T22:25:30.792Z,131.60
2018-02-16T22:27:59.060Z,118.40
2018-02-16T22:30:26.622Z,121.50
2018-02-16T22:32:54.907Z,93.00
2018-02-16T22:35:23.163Z,125.93
2018-02-16T22:37:52.148Z,133.77
2018-02-16T22:40:19.636Z,205.77
2018-02-16T22:42:47.893Z,138.93
2018-02-16T22:45:16.882Z,184.17
2018-02-16T22:47:44.374Z,142.20
2018-02-16T22:50:11.875Z,116.43
2018-02-16T22:52:39.362Z,144.47
2018-02-16T22:55:06.854Z,73.70
2018-02-16T22:57:35.142Z,111.37
2018-02-16T23:00:02.739Z,92.93
2018-02-16T23:02:30.222Z,121.63
2018-02-16T23:04:58.478Z,98.77
2018-02-16T23:07:25.960Z,102.53
2018-02-16T23:09:54.218Z,58.77
2018-02-16T23:12:21.710Z,131.07
2018-02-16T23:14:49.972Z,90.53
2018-02-16T23:17:18.231Z,113.23
2018-02-16T23:19:45.717Z,89.03
2018-02-16T23:22:13.966Z,57.13
2018-02-16T23:24:41.553Z,120.37
2018-02-16T23:27:09.809Z,141.47
2018-02-16T23:29:37.299Z,89.53
2018-02-16T23:32:04.846Z,75.20
2018-02-16T23:34:33.103Z,87.60
2018-02-16T23:37:00.585Z,88.43
2018-02-16T23:39:28.832Z,139.67
2018-02-16T23:41:56.389Z,108.37
2018-02-16T23:44:23.775Z,123.43
2018-02-16T23:46:52.782Z,146.67
2018-02-16T23:49:20.274Z,189.47
2018-02-16T23:51:48.524Z,131.23
2018-02-16T23:54:16.770Z,73.37
2018-02-16T23:56:44.262Z,83.57
2018-02-16T23:59:11.752Z,89.40
